Country
Station

 

Weather  for  Warton  -  United Kingdom    United Kingdom

  
12 °C (54 °F)
    
 
 

Current METAR for Warton is :

EGNO 161720Z 13009KT 9999 OVC016 12/10 Q1024

 

This is a report for Warton - United Kingdom.
 
The report was made 2 hours and 42 minutes ago, at 17:20 UTC .
The wind was blowing at a speed of 4.6 meters per second (10.4 miles per hour) from southeast (130°).
 
The temperature was 12 °C (54 °F), with a dew-point at 10 °C (50 °F).
The atmospheric pressure was 1024 hPa (30.24 inHg).
The relative humidity was 87.6%.
 
The sky was overcast from a height of 488 meter (1600 feet)
 
The overall visibility was greater than 10 kilometers (6.2 miles).
 

 
 
 
 

Country :   A   B   C   D   E   F   G   H   I   J   K   L   M   N   O   P   Q   R   S   T   U   V   W   Y   Z

 

Site Info  |  Disclaimer  |  Credits  |  Privacy
Contact us  |  Add to favorites
© 2013-2018 METARs - All rights reserved